createdAt,value
2023-07-28T00:00:32.429Z,19.53
2023-07-28T00:01:32.438Z,19.53
2023-07-28T00:02:32.417Z,19.53
2023-07-28T00:03:32.386Z,19.27
2023-07-28T00:04:32.529Z,19.27
2023-07-28T00:05:32.373Z,19.38
2023-07-28T00:06:35.182Z,19.35
2023-07-28T00:07:32.337Z,19.26
2023-07-28T00:08:32.325Z,19.32
2023-07-28T00:09:32.314Z,19.24
2023-07-28T00:10:32.316Z,19.41
2023-07-28T00:11:32.271Z,19.31
2023-07-28T00:12:32.293Z,19.24
2023-07-28T00:13:32.253Z,19.30
2023-07-28T00:14:32.264Z,19.26
2023-07-28T00:15:32.453Z,19.34
2023-07-28T00:16:32.502Z,19.37
2023-07-28T00:17:32.223Z,19.45
2023-07-28T00:18:32.184Z,19.35
2023-07-28T00:19:32.195Z,19.30
2023-07-28T00:20:32.199Z,19.37
2023-07-28T00:21:32.158Z,19.50
2023-07-28T00:22:32.143Z,19.47
2023-07-28T00:23:32.125Z,19.34
2023-07-28T00:24:32.131Z,19.38
2023-07-28T00:25:32.103Z,19.49
2023-07-28T00:26:32.369Z,19.38
2023-07-28T00:27:32.079Z,19.20
2023-07-28T00:28:32.078Z,19.24
2023-07-28T00:29:32.068Z,19.38
2023-07-28T00:30:32.065Z,19.37
2023-07-28T00:31:32.023Z,19.37
2023-07-28T00:32:32.057Z,19.35
2023-07-28T00:33:32.019Z,19.31
2023-07-28T00:34:31.984Z,19.19
2023-07-28T00:35:31.967Z,19.13
2023-07-28T00:36:31.959Z,19.23
2023-07-28T00:37:31.945Z,19.17
2023-07-28T00:38:31.943Z,19.19
2023-07-28T00:39:31.914Z,19.17
2023-07-28T00:40:31.908Z,19.07
2023-07-28T00:41:31.897Z,19.04
2023-07-28T00:42:31.906Z,19.20
2023-07-28T00:43:31.875Z,19.20
2023-07-28T00:44:31.838Z,19.22
2023-07-28T00:45:31.843Z,19.15
2023-07-28T00:46:32.075Z,19.08
2023-07-28T00:47:31.919Z,18.98
2023-07-28T00:48:31.799Z,18.94
2023-07-28T00:49:31.800Z,19.15
2023-07-28T00:50:31.765Z,19.17
2023-07-28T00:51:31.768Z,19.17
2023-07-28T00:52:31.758Z,19.22
2023-07-28T00:53:31.743Z,19.22
2023-07-28T00:54:31.723Z,19.30
2023-07-28T00:55:31.701Z,19.35
2023-07-28T00:56:31.994Z,19.32
2023-07-28T00:57:31.711Z,19.54
2023-07-28T00:58:31.673Z,19.53
2023-07-28T00:59:31.667Z,19.42
2023-07-28T01:00:31.635Z,19.27
2023-07-28T01:01:31.679Z,19.05
2023-07-28T01:02:31.619Z,19.07
2023-07-28T01:03:31.618Z,19.16
2023-07-28T01:04:31.604Z,19.30
2023-07-28T01:05:31.592Z,19.34
2023-07-28T01:06:31.666Z,19.22
2023-07-28T01:07:31.558Z,19.45
2023-07-28T01:08:31.527Z,19.42
2023-07-28T01:09:31.536Z,19.30
2023-07-28T01:10:31.542Z,19.17
2023-07-28T01:11:31.516Z,19.09
2023-07-28T01:12:31.484Z,19.23
2023-07-28T01:13:31.472Z,19.19
2023-07-28T01:14:31.455Z,19.20
2023-07-28T01:15:31.467Z,19.13
2023-07-28T01:16:31.453Z,19.30
2023-07-28T01:17:31.437Z,19.20
2023-07-28T01:18:31.401Z,19.27
2023-07-28T01:19:31.455Z,19.31
2023-07-28T01:20:31.408Z,19.19
2023-07-28T01:21:31.355Z,19.23
2023-07-28T01:22:31.353Z,19.17
2023-07-28T01:23:31.338Z,19.15
2023-07-28T01:24:31.320Z,19.15
2023-07-28T01:25:31.343Z,19.13
2023-07-28T01:26:31.301Z,19.22
2023-07-28T01:27:31.285Z,19.13
2023-07-28T01:28:31.272Z,19.09
2023-07-28T01:29:31.275Z,19.01
2023-07-28T01:30:31.265Z,19.13
2023-07-28T01:31:31.279Z,19.01
2023-07-28T01:32:31.256Z,19.16
2023-07-28T01:33:31.238Z,19.09
2023-07-28T01:34:31.213Z,19.15
2023-07-28T01:35:31.202Z,19.12
2023-07-28T01:36:31.167Z,19.16
2023-07-28T01:37:31.159Z,19.19
2023-07-28T01:38:31.150Z,19.05
2023-07-28T01:39:31.154Z,19.15
2023-07-28T01:40:31.117Z,19.09
2023-07-28T01:41:31.110Z,19.07
2023-07-28T01:42:31.097Z,18.97
2023-07-28T01:43:31.087Z,18.97
2023-07-28T01:44:31.083Z,19.12
2023-07-28T01:45:31.086Z,18.96
2023-07-28T01:46:31.057Z,19.12
2023-07-28T01:47:31.090Z,19.00
2023-07-28T01:48:31.020Z,19.12
2023-07-28T01:49:31.035Z,19.16
2023-07-28T01:50:30.991Z,19.16
2023-07-28T01:51:30.993Z,19.19
2023-07-28T01:52:30.998Z,19.26
2023-07-28T01:53:30.964Z,19.08
2023-07-28T01:54:30.935Z,19.15
2023-07-28T01:55:30.922Z,19.15
2023-07-28T01:56:30.927Z,19.15
2023-07-28T01:57:30.908Z,19.08
2023-07-28T01:58:30.921Z,19.08
2023-07-28T01:59:30.874Z,19.08
2023-07-28T02:00:30.878Z,18.96
2023-07-28T02:01:30.863Z,19.04
2023-07-28T02:02:30.867Z,19.08
2023-07-28T02:03:30.844Z,19.19
2023-07-28T02:04:30.912Z,19.09
2023-07-28T02:05:30.798Z,19.08
2023-07-28T02:06:30.783Z,19.09
2023-07-28T02:07:30.804Z,19.12
2023-07-28T02:08:30.768Z,19.04
2023-07-28T02:09:30.748Z,18.94
2023-07-28T02:10:30.750Z,19.04
2023-07-28T02:11:30.706Z,19.00
2023-07-28T02:12:30.725Z,18.91
2023-07-28T02:13:30.700Z,18.93
2023-07-28T02:14:30.661Z,19.08
2023-07-28T02:15:30.669Z,19.09
2023-07-28T02:16:30.729Z,19.00
2023-07-28T02:17:30.665Z,19.08
2023-07-28T02:18:30.612Z,19.17
2023-07-28T02:19:30.619Z,19.16
2023-07-28T02:20:30.605Z,19.13
2023-07-28T02:21:30.822Z,19.07
2023-07-28T02:22:30.600Z,19.13
2023-07-28T02:23:30.570Z,19.24
2023-07-28T02:24:30.538Z,19.15
2023-07-28T02:25:30.547Z,19.15
2023-07-28T02:26:30.546Z,19.23
2023-07-28T02:27:30.508Z,19.31
2023-07-28T02:28:30.564Z,19.42
2023-07-28T02:29:30.488Z,19.35
2023-07-28T02:30:30.481Z,19.35
2023-07-28T02:31:30.462Z,19.32
2023-07-28T02:32:30.453Z,19.41
2023-07-28T02:33:30.447Z,19.20
2023-07-28T02:34:30.415Z,19.26
2023-07-28T02:35:30.407Z,19.12
2023-07-28T02:36:30.403Z,19.13
2023-07-28T02:37:30.383Z,19.04
2023-07-28T02:38:30.404Z,19.15
2023-07-28T02:39:30.355Z,19.16
2023-07-28T02:40:30.356Z,19.13
2023-07-28T02:41:30.345Z,19.26
2023-07-28T02:42:30.308Z,19.17
2023-07-28T02:43:30.304Z,19.04
2023-07-28T02:44:30.293Z,18.96
2023-07-28T02:45:30.291Z,19.04
2023-07-28T02:46:30.341Z,19.05
2023-07-28T02:47:30.243Z,18.97
2023-07-28T02:48:30.231Z,19.08
2023-07-28T02:49:30.220Z,19.09
2023-07-28T02:50:30.227Z,19.08
2023-07-28T02:51:30.201Z,19.00
2023-07-28T02:52:30.185Z,18.98
2023-07-28T02:53:30.167Z,18.96
2023-07-28T02:54:30.165Z,18.94
2023-07-28T02:55:30.321Z,19.13
2023-07-28T02:56:30.119Z,19.09
2023-07-28T02:57:30.126Z,19.07
2023-07-28T02:58:30.096Z,18.98
2023-07-28T02:59:30.120Z,18.88
2023-07-28T03:00:30.062Z,19.04
2023-07-28T03:01:30.089Z,19.07
2023-07-28T03:02:30.118Z,19.08
2023-07-28T03:03:30.120Z,19.08
2023-07-28T03:04:30.041Z,19.07
2023-07-28T03:05:30.009Z,19.00
2023-07-28T03:06:30.022Z,19.00
2023-07-28T03:07:29.994Z,19.01
2023-07-28T03:08:30.002Z,18.97
2023-07-28T03:09:29.968Z,19.04
2023-07-28T03:10:29.928Z,19.15
2023-07-28T03:11:29.940Z,19.13
2023-07-28T03:12:29.928Z,19.24
2023-07-28T03:13:29.930Z,19.12
2023-07-28T03:14:29.893Z,19.07
2023-07-28T03:15:29.869Z,19.07
2023-07-28T03:16:29.929Z,19.04
2023-07-28T03:17:29.925Z,18.98
2023-07-28T03:18:29.867Z,18.86
2023-07-28T03:19:29.831Z,18.97
2023-07-28T03:20:29.799Z,18.98
2023-07-28T03:21:29.805Z,19.01
2023-07-28T03:22:29.804Z,19.05
2023-07-28T03:23:29.798Z,18.98
2023-07-28T03:24:29.763Z,19.05
2023-07-28T03:25:29.759Z,19.12
2023-07-28T03:26:29.741Z,19.08
2023-07-28T03:27:29.755Z,18.96
2023-07-28T03:28:29.757Z,19.05
2023-07-28T03:29:29.666Z,19.01
2023-07-28T03:30:29.688Z,19.05
2023-07-28T03:31:29.660Z,18.96
2023-07-28T03:32:29.636Z,18.96
2023-07-28T03:33:29.592Z,18.96
2023-07-28T03:34:29.583Z,19.12
2023-07-28T03:35:29.566Z,19.12
2023-07-28T03:36:29.554Z,19.04
2023-07-28T03:37:29.557Z,19.00
2023-07-28T03:38:29.531Z,19.01
2023-07-28T03:39:29.510Z,19.09
2023-07-28T03:40:29.504Z,19.19
2023-07-28T03:41:29.497Z,19.09
2023-07-28T03:42:29.492Z,18.94
2023-07-28T03:43:29.457Z,18.89
2023-07-28T03:44:29.457Z,18.86
2023-07-28T03:45:29.435Z,19.05
2023-07-28T03:46:31.092Z,19.08
2023-07-28T03:47:29.435Z,18.96
2023-07-28T03:48:29.403Z,19.07
2023-07-28T03:49:29.386Z,19.00
2023-07-28T03:50:29.377Z,19.05
2023-07-28T03:51:29.394Z,19.08
2023-07-28T03:52:29.356Z,18.98
2023-07-28T03:53:29.332Z,18.96
2023-07-28T03:54:29.325Z,18.94
2023-07-28T03:55:29.303Z,19.08
2023-07-28T03:56:29.309Z,19.00
2023-07-28T03:57:29.275Z,18.91
2023-07-28T03:58:29.280Z,19.04
2023-07-28T03:59:29.255Z,19.01
2023-07-28T04:00:29.351Z,18.82
2023-07-28T04:01:29.249Z,18.94
2023-07-28T04:02:29.251Z,18.88
2023-07-28T04:03:29.200Z,18.93
2023-07-28T04:04:29.216Z,18.82
2023-07-28T04:05:29.274Z,18.96
2023-07-28T04:06:29.153Z,18.85
2023-07-28T04:07:29.152Z,18.88
2023-07-28T04:08:29.134Z,19.09
2023-07-28T04:09:29.110Z,18.96
2023-07-28T04:10:29.126Z,18.94
2023-07-28T04:11:29.089Z,19.05
2023-07-28T04:12:29.073Z,19.12
2023-07-28T04:13:29.074Z,18.97
2023-07-28T04:14:29.060Z,18.94
2023-07-28T04:15:29.070Z,19.01
2023-07-28T04:16:29.042Z,19.09
2023-07-28T04:17:29.025Z,19.19
2023-07-28T04:18:28.994Z,19.20
2023-07-28T04:19:28.997Z,19.00
2023-07-28T04:20:29.006Z,19.07
2023-07-28T04:21:28.974Z,19.15
2023-07-28T04:22:28.937Z,19.17
2023-07-28T04:23:29.019Z,19.17
2023-07-28T04:24:28.975Z,18.97
2023-07-28T04:25:28.908Z,19.01
2023-07-28T04:26:28.910Z,19.08
2023-07-28T04:27:30.261Z,19.17
2023-07-28T04:28:28.914Z,19.12
2023-07-28T04:29:28.863Z,19.26
2023-07-28T04:30:28.848Z,19.19
2023-07-28T04:31:28.873Z,19.23
2023-07-28T04:32:28.830Z,19.26
2023-07-28T04:33:28.838Z,19.20
2023-07-28T04:34:28.800Z,19.22
2023-07-28T04:35:28.786Z,19.34
2023-07-28T04:36:28.774Z,19.45
2023-07-28T04:37:28.753Z,19.47
2023-07-28T04:38:28.763Z,19.53
2023-07-28T04:39:28.720Z,19.50
2023-07-28T04:40:28.716Z,19.49
2023-07-28T04:41:28.719Z,19.44
2023-07-28T04:42:28.701Z,19.44
2023-07-28T04:43:28.699Z,19.41
2023-07-28T04:44:28.708Z,19.37
2023-07-28T04:45:28.658Z,19.50
2023-07-28T04:46:28.638Z,19.57
2023-07-28T04:47:28.630Z,19.50
2023-07-28T04:48:28.646Z,19.24
2023-07-28T04:49:28.608Z,19.13
2023-07-28T04:50:28.602Z,19.13
2023-07-28T04:51:28.581Z,19.00
2023-07-28T04:52:28.585Z,19.09
2023-07-28T04:53:28.574Z,19.00
2023-07-28T04:54:28.537Z,19.01
2023-07-28T04:55:28.542Z,18.96
2023-07-28T04:56:28.504Z,18.96
2023-07-28T04:57:28.529Z,19.05
2023-07-28T04:58:28.481Z,18.97
2023-07-28T04:59:28.478Z,19.19
2023-07-28T05:00:28.455Z,19.12
2023-07-28T05:01:28.467Z,19.32
2023-07-28T05:02:28.485Z,19.20
2023-07-28T05:03:28.425Z,19.13
2023-07-28T05:04:28.509Z,19.15
2023-07-28T05:05:28.390Z,19.22
2023-07-28T05:06:28.401Z,19.38
2023-07-28T05:07:28.380Z,19.27
2023-07-28T05:08:28.362Z,19.26
2023-07-28T05:09:28.351Z,19.17
2023-07-28T05:10:28.323Z,19.32
2023-07-28T05:11:28.331Z,19.39
2023-07-28T05:12:28.329Z,19.54
2023-07-28T05:13:28.273Z,19.53
2023-07-28T05:14:28.272Z,19.52
2023-07-28T05:15:28.258Z,19.56
2023-07-28T05:16:28.328Z,19.74
2023-07-28T05:17:28.246Z,19.56
2023-07-28T05:18:28.223Z,19.63
2023-07-28T05:19:28.223Z,19.68
2023-07-28T05:20:28.211Z,19.59
2023-07-28T05:21:28.276Z,19.71
2023-07-28T05:22:28.183Z,19.72
2023-07-28T05:23:28.169Z,19.50
2023-07-28T05:24:28.140Z,19.50
2023-07-28T05:25:28.157Z,19.52
2023-07-28T05:26:28.125Z,19.22
2023-07-28T05:27:28.102Z,19.22
2023-07-28T05:28:28.132Z,19.17
2023-07-28T05:29:28.074Z,19.41
2023-07-28T05:30:30.681Z,19.47
2023-07-28T05:31:28.059Z,19.35
2023-07-28T05:32:28.070Z,19.45
2023-07-28T05:33:28.016Z,19.59
2023-07-28T05:34:28.025Z,19.72
2023-07-28T05:35:28.022Z,19.52
2023-07-28T05:36:27.989Z,19.57
2023-07-28T05:37:27.994Z,19.77
2023-07-28T05:38:27.978Z,19.78
2023-07-28T05:39:27.956Z,19.72
2023-07-28T05:40:27.945Z,19.75
2023-07-28T05:41:27.921Z,19.50
2023-07-28T05:42:28.010Z,19.71
2023-07-28T05:43:27.893Z,19.56
2023-07-28T05:44:27.894Z,19.70
2023-07-28T05:45:27.875Z,19.68
2023-07-28T05:46:27.914Z,19.54
2023-07-28T05:47:27.915Z,19.47
2023-07-28T05:48:27.913Z,19.57
2023-07-28T05:49:27.837Z,19.67
2023-07-28T05:50:27.802Z,19.94
2023-07-28T05:51:27.791Z,20.14
2023-07-28T05:52:27.769Z,20.04
2023-07-28T05:53:27.778Z,19.78
2023-07-28T05:54:27.798Z,20.00
2023-07-28T05:55:29.841Z,19.94
2023-07-28T05:56:27.711Z,19.93
2023-07-28T05:57:27.705Z,19.74
2023-07-28T05:58:27.721Z,19.75
2023-07-28T05:59:27.675Z,19.72
2023-07-28T06:00:27.717Z,19.75
2023-07-28T06:01:27.643Z,19.71
2023-07-28T06:02:27.691Z,19.56
2023-07-28T06:03:27.672Z,19.68
2023-07-28T06:04:27.609Z,19.79
2023-07-28T06:05:27.598Z,19.97
2023-07-28T06:06:27.580Z,20.05
2023-07-28T06:07:27.588Z,20.12
2023-07-28T06:08:27.582Z,19.90
2023-07-28T06:09:27.534Z,19.90
2023-07-28T06:10:27.529Z,20.22
2023-07-28T06:11:27.512Z,19.75
2023-07-28T06:12:27.519Z,19.71
2023-07-28T06:13:27.505Z,19.89
2023-07-28T06:14:27.504Z,20.00
2023-07-28T06:15:27.462Z,19.89
2023-07-28T06:16:27.463Z,19.87
2023-07-28T06:17:27.479Z,20.02
2023-07-28T06:18:27.430Z,19.74
2023-07-28T06:19:27.416Z,19.67
2023-07-28T06:20:27.397Z,19.82
2023-07-28T06:21:27.383Z,19.72
2023-07-28T06:22:27.387Z,19.57
2023-07-28T06:23:27.350Z,19.74
2023-07-28T06:24:27.347Z,19.99
2023-07-28T06:25:27.339Z,20.04
2023-07-28T06:26:27.340Z,20.00
2023-07-28T06:27:27.314Z,20.00
2023-07-28T06:28:27.346Z,19.81
2023-07-28T06:29:27.267Z,19.84
2023-07-28T06:30:27.310Z,19.71
2023-07-28T06:31:27.276Z,19.84
2023-07-28T06:32:27.251Z,19.70
2023-07-28T06:33:27.222Z,19.89
2023-07-28T06:34:27.232Z,19.99
2023-07-28T06:35:27.196Z,19.97
2023-07-28T06:36:27.206Z,20.02
2023-07-28T06:37:27.218Z,19.89
2023-07-28T06:38:27.158Z,19.92
2023-07-28T06:39:27.297Z,19.72
2023-07-28T06:40:27.161Z,19.72
2023-07-28T06:41:27.148Z,20.00
2023-07-28T06:42:27.108Z,20.33
2023-07-28T06:43:27.098Z,20.26
2023-07-28T06:44:27.076Z,20.29
2023-07-28T06:45:27.083Z,20.48
2023-07-28T06:46:27.110Z,20.50
2023-07-28T06:47:27.076Z,20.00
2023-07-28T06:48:27.024Z,20.19
2023-07-28T06:49:27.032Z,20.27
2023-07-28T06:50:27.060Z,20.15
2023-07-28T06:51:26.984Z,20.32
2023-07-28T06:52:26.978Z,20.26
2023-07-28T06:53:26.955Z,20.36
2023-07-28T06:54:26.942Z,20.53
2023-07-28T06:55:26.976Z,20.42
2023-07-28T06:56:26.929Z,20.52
2023-07-28T06:57:26.911Z,20.48
2023-07-28T06:58:26.890Z,20.53
2023-07-28T06:59:26.891Z,20.64
2023-07-28T07:00:26.950Z,20.46
2023-07-28T07:01:26.898Z,20.37
2023-07-28T07:02:26.855Z,20.19
2023-07-28T07:03:26.819Z,20.15
2023-07-28T07:04:26.887Z,20.14
2023-07-28T07:05:26.829Z,20.19
2023-07-28T07:06:26.793Z,20.07
2023-07-28T07:07:29.080Z,20.02
2023-07-28T07:08:26.764Z,20.22
2023-07-28T07:09:26.752Z,20.37
2023-07-28T07:10:26.743Z,20.46
2023-07-28T07:11:26.722Z,20.18
2023-07-28T07:12:26.714Z,19.97
2023-07-28T07:13:26.684Z,20.11
2023-07-28T07:14:26.877Z,19.94
2023-07-28T07:15:26.663Z,19.86
2023-07-28T07:16:26.686Z,20.05
2023-07-28T07:17:26.644Z,19.84
2023-07-28T07:18:26.632Z,19.97
2023-07-28T07:19:26.661Z,20.09
2023-07-28T07:20:26.602Z,20.05
2023-07-28T07:21:26.577Z,20.09
2023-07-28T07:22:26.584Z,20.44
2023-07-28T07:23:26.570Z,20.37
2023-07-28T07:24:26.717Z,20.27
2023-07-28T07:25:26.536Z,20.39
2023-07-28T07:26:26.530Z,20.49
2023-07-28T07:27:26.496Z,20.32
2023-07-28T07:28:26.547Z,20.32
2023-07-28T07:29:26.490Z,20.33
2023-07-28T07:30:26.471Z,20.07
2023-07-28T07:31:26.515Z,20.11
2023-07-28T07:32:26.488Z,20.29
2023-07-28T07:33:26.454Z,20.34
2023-07-28T07:34:26.419Z,20.27
2023-07-28T07:35:26.397Z,20.50
2023-07-28T07:36:26.409Z,20.79
2023-07-28T07:37:26.405Z,20.52
2023-07-28T07:38:26.396Z,20.49
2023-07-28T07:39:26.361Z,20.25
2023-07-28T07:40:28.896Z,20.33
2023-07-28T07:41:26.342Z,20.39
2023-07-28T07:42:26.380Z,20.46
2023-07-28T07:43:26.312Z,20.29
2023-07-28T07:44:26.306Z,20.27
2023-07-28T07:45:26.326Z,20.17
2023-07-28T07:46:26.292Z,20.19
2023-07-28T07:47:26.321Z,20.25
2023-07-28T07:48:26.264Z,20.17
2023-07-28T07:49:26.260Z,20.07
2023-07-28T07:50:26.227Z,20.27
2023-07-28T07:51:26.253Z,20.30
2023-07-28T07:52:26.223Z,20.55
2023-07-28T07:53:26.201Z,20.42
2023-07-28T07:54:26.195Z,20.29
2023-07-28T07:55:26.162Z,20.63
2023-07-28T07:56:26.160Z,20.63
2023-07-28T07:57:26.184Z,20.85
2023-07-28T07:58:26.130Z,20.80
2023-07-28T07:59:26.128Z,20.75
2023-07-28T08:00:26.087Z,20.67
2023-07-28T08:01:26.182Z,20.61
2023-07-28T08:02:26.090Z,20.68
2023-07-28T08:03:26.068Z,20.53
2023-07-28T08:04:26.073Z,20.39
2023-07-28T08:05:26.118Z,20.42
2023-07-28T08:06:26.140Z,20.58
2023-07-28T08:07:26.027Z,20.73
2023-07-28T08:08:25.992Z,20.49
2023-07-28T08:09:26.006Z,20.63
2023-07-28T08:10:26.169Z,20.73
2023-07-28T08:11:25.967Z,20.52
2023-07-28T08:12:25.937Z,20.32
2023-07-28T08:13:25.932Z,20.39
2023-07-28T08:14:25.929Z,20.58
2023-07-28T08:15:26.111Z,20.52
2023-07-28T08:16:25.901Z,20.56
2023-07-28T08:17:25.998Z,20.55
2023-07-28T08:18:25.888Z,20.37
2023-07-28T08:19:26.107Z,20.15
2023-07-28T08:20:26.122Z,20.33
2023-07-28T08:21:25.828Z,20.34
2023-07-28T08:22:25.837Z,20.42
2023-07-28T08:23:25.828Z,20.46
2023-07-28T08:24:25.843Z,20.71
2023-07-28T08:25:25.814Z,20.79
2023-07-28T08:26:31.794Z,20.74
2023-07-28T08:27:25.765Z,20.83
2023-07-28T08:28:25.789Z,20.95
2023-07-28T08:29:25.741Z,20.85
2023-07-28T08:30:25.723Z,20.74
2023-07-28T08:31:25.760Z,20.82
2023-07-28T08:32:25.708Z,20.93
2023-07-28T08:33:25.680Z,21.01
2023-07-28T08:34:25.689Z,20.95
2023-07-28T08:35:25.691Z,21.08
2023-07-28T08:36:25.630Z,21.19
2023-07-28T08:37:25.623Z,21.05
2023-07-28T08:38:25.626Z,21.20
2023-07-28T08:39:25.646Z,20.98
2023-07-28T08:40:25.603Z,20.77
2023-07-28T08:41:25.572Z,20.85
2023-07-28T08:42:25.562Z,20.82
2023-07-28T08:43:25.565Z,20.82
2023-07-28T08:44:25.542Z,20.85
2023-07-28T08:45:25.580Z,20.83
2023-07-28T08:46:25.521Z,20.82
2023-07-28T08:47:25.545Z,20.80
2023-07-28T08:48:25.634Z,21.01
2023-07-28T08:49:25.491Z,20.73
2023-07-28T08:50:25.454Z,20.63
2023-07-28T08:51:25.438Z,20.86
2023-07-28T08:52:25.420Z,20.92
2023-07-28T08:53:25.443Z,21.08
2023-07-28T08:54:25.402Z,21.35
2023-07-28T08:55:25.400Z,21.41
2023-07-28T08:56:25.367Z,21.47
2023-07-28T08:57:25.385Z,21.16
2023-07-28T08:58:25.543Z,21.16
2023-07-28T08:59:25.340Z,21.25
2023-07-28T09:00:25.316Z,21.11
2023-07-28T09:01:25.303Z,21.29
2023-07-28T09:02:25.413Z,21.20
2023-07-28T09:03:25.281Z,21.28
2023-07-28T09:04:25.258Z,21.13
2023-07-28T09:05:25.583Z,21.26
2023-07-28T09:06:25.242Z,21.34
2023-07-28T09:07:25.275Z,21.26
2023-07-28T09:08:25.233Z,21.51
2023-07-28T09:09:25.216Z,21.41
2023-07-28T09:10:25.193Z,21.13
2023-07-28T09:11:25.194Z,21.34
2023-07-28T09:12:25.223Z,21.48
2023-07-28T09:13:25.152Z,21.45
2023-07-28T09:14:25.141Z,21.34
2023-07-28T09:15:25.137Z,21.23
2023-07-28T09:16:25.142Z,21.18
2023-07-28T09:17:25.124Z,21.35
2023-07-28T09:18:25.082Z,21.40
2023-07-28T09:19:25.085Z,21.80
2023-07-28T09:20:25.056Z,21.71
2023-07-28T09:21:25.117Z,21.96
2023-07-28T09:22:25.095Z,21.81
2023-07-28T09:23:25.019Z,21.56
2023-07-28T09:24:25.005Z,21.40
2023-07-28T09:25:25.026Z,21.50
2023-07-28T09:26:24.996Z,21.35
2023-07-28T09:27:24.969Z,20.90
2023-07-28T09:28:25.002Z,20.70
2023-07-28T09:29:24.951Z,20.83
2023-07-28T09:30:24.965Z,20.85
2023-07-28T09:31:26.852Z,20.80
2023-07-28T09:32:24.907Z,20.89
2023-07-28T09:33:24.902Z,20.80
2023-07-28T09:34:24.872Z,20.74
2023-07-28T09:35:24.886Z,20.82
2023-07-28T09:36:24.846Z,21.03
2023-07-28T09:37:24.839Z,21.07
2023-07-28T09:38:24.828Z,21.11
2023-07-28T09:39:24.813Z,21.38
2023-07-28T09:40:24.884Z,21.51
2023-07-28T09:41:24.789Z,21.19
2023-07-28T09:42:24.773Z,21.16
2023-07-28T09:43:24.773Z,21.11
2023-07-28T09:44:24.781Z,20.95
2023-07-28T09:46:24.776Z,21.13
2023-07-28T09:47:24.759Z,21.07
2023-07-28T09:48:24.698Z,20.98
2023-07-28T09:49:24.718Z,20.55
2023-07-28T09:50:24.697Z,20.61
2023-07-28T09:51:24.665Z,20.75
2023-07-28T09:52:24.644Z,20.75
2023-07-28T09:53:24.625Z,20.93
2023-07-28T09:54:24.642Z,21.08
2023-07-28T09:55:24.602Z,21.10
2023-07-28T09:56:24.588Z,21.29
2023-07-28T09:57:24.574Z,21.37
2023-07-28T09:58:24.568Z,20.98
2023-07-28T09:59:24.573Z,20.98
2023-07-28T10:00:24.541Z,20.88
2023-07-28T10:01:24.536Z,20.77
2023-07-28T10:02:24.565Z,20.88
2023-07-28T10:03:24.656Z,21.34
2023-07-28T10:04:24.510Z,21.48
2023-07-28T10:05:24.596Z,21.35
2023-07-28T10:06:24.468Z,21.25
2023-07-28T10:07:24.438Z,21.43
2023-07-28T10:08:26.589Z,21.69
2023-07-28T10:09:24.426Z,21.55
2023-07-28T10:10:24.409Z,21.38
2023-07-28T10:11:24.388Z,21.43
2023-07-28T10:12:24.385Z,21.29
2023-07-28T10:13:24.421Z,21.19
2023-07-28T10:14:24.390Z,21.38
2023-07-28T10:15:24.380Z,21.01
2023-07-28T10:16:24.402Z,21.22
2023-07-28T10:17:24.344Z,21.07
2023-07-28T10:18:24.334Z,20.86
2023-07-28T10:19:24.292Z,20.85
2023-07-28T10:20:24.287Z,20.80
2023-07-28T10:21:24.277Z,21.11
2023-07-28T10:22:24.280Z,21.19
2023-07-28T10:23:24.462Z,21.23
2023-07-28T10:24:24.255Z,20.95
2023-07-28T10:25:24.234Z,21.01
2023-07-28T10:26:24.198Z,21.03
2023-07-28T10:27:24.210Z,21.13
2023-07-28T10:28:24.216Z,21.18
2023-07-28T10:29:24.168Z,21.08
2023-07-28T10:30:24.140Z,21.18
2023-07-28T10:31:24.218Z,21.20
2023-07-28T10:32:24.199Z,21.04
2023-07-28T10:33:24.107Z,21.18
2023-07-28T10:34:24.104Z,21.11
2023-07-28T10:35:24.090Z,20.83
2023-07-28T10:36:24.090Z,20.82
2023-07-28T10:37:24.093Z,20.98
2023-07-28T10:38:24.040Z,20.93
2023-07-28T10:39:24.046Z,20.74
2023-07-28T10:40:24.018Z,20.80
2023-07-28T10:41:24.030Z,21.01
2023-07-28T10:42:24.014Z,20.98
2023-07-28T10:43:23.976Z,21.10
2023-07-28T10:44:23.963Z,21.14
2023-07-28T10:45:23.989Z,21.16
2023-07-28T10:46:24.043Z,21.40
2023-07-28T10:47:23.964Z,21.16
2023-07-28T10:48:23.915Z,21.20
2023-07-28T10:49:23.909Z,21.30
2023-07-28T10:50:23.892Z,21.35
2023-07-28T10:51:23.888Z,21.03
2023-07-28T10:52:23.862Z,20.98
2023-07-28T10:53:23.999Z,21.10
2023-07-28T10:54:23.846Z,20.97
2023-07-28T10:55:23.860Z,20.74
2023-07-28T10:56:23.918Z,20.80
2023-07-28T10:57:23.798Z,20.60
2023-07-28T10:58:23.800Z,20.60
2023-07-28T10:59:23.775Z,20.67
2023-07-28T11:00:23.783Z,20.52
2023-07-28T11:01:23.786Z,20.82
2023-07-28T11:02:23.799Z,20.88
2023-07-28T11:03:23.774Z,20.89
2023-07-28T11:04:23.699Z,20.80
2023-07-28T11:05:23.719Z,20.80
2023-07-28T11:06:24.291Z,21.03
2023-07-28T11:07:23.667Z,21.13
2023-07-28T11:08:23.656Z,21.16
2023-07-28T11:09:23.642Z,21.47
2023-07-28T11:10:23.651Z,21.47
2023-07-28T11:11:23.668Z,21.66
2023-07-28T11:12:23.624Z,21.59
2023-07-28T11:13:38.801Z,21.58
2023-07-28T11:14:23.601Z,21.63
2023-07-28T11:15:23.601Z,21.90
2023-07-28T11:16:23.603Z,21.80
2023-07-28T11:17:23.564Z,21.93
2023-07-28T11:18:23.524Z,21.63
2023-07-28T11:19:23.534Z,21.58
2023-07-28T11:20:23.497Z,21.47
2023-07-28T11:21:23.502Z,21.65
2023-07-28T11:22:23.475Z,21.59
2023-07-28T11:23:23.477Z,21.38
2023-07-28T11:24:23.474Z,21.28
2023-07-28T11:25:23.447Z,21.35
2023-07-28T11:26:23.419Z,21.81
2023-07-28T11:27:23.410Z,21.62
2023-07-28T11:28:23.461Z,21.77
2023-07-28T11:29:23.400Z,21.60
2023-07-28T11:30:23.365Z,21.51
2023-07-28T11:31:23.399Z,21.50
2023-07-28T11:32:23.338Z,21.30
2023-07-28T11:33:23.328Z,21.37
2023-07-28T11:34:23.372Z,21.38
2023-07-28T11:35:23.305Z,21.56
2023-07-28T11:36:23.283Z,21.60
2023-07-28T11:37:23.282Z,21.59
2023-07-28T11:38:23.260Z,21.78
2023-07-28T11:39:23.326Z,21.91
2023-07-28T11:40:23.253Z,22.09
2023-07-28T11:41:23.233Z,22.22
2023-07-28T11:42:23.219Z,22.12
2023-07-28T11:43:23.229Z,22.27
2023-07-28T11:44:23.203Z,22.40
2023-07-28T11:45:23.171Z,22.38
2023-07-28T11:46:23.169Z,22.51
2023-07-28T11:47:23.207Z,22.62
2023-07-28T11:48:23.215Z,22.30
2023-07-28T11:49:23.123Z,22.18
2023-07-28T11:50:23.112Z,21.80
2023-07-28T11:51:23.098Z,21.71
2023-07-28T11:52:23.904Z,21.81
2023-07-28T11:53:23.148Z,21.77
2023-07-28T11:54:23.492Z,21.74
2023-07-28T11:55:23.061Z,21.78
2023-07-28T11:56:23.032Z,21.55
2023-07-28T11:57:23.020Z,21.78
2023-07-28T11:58:24.342Z,21.94
2023-07-28T11:59:22.989Z,21.77
2023-07-28T12:00:22.982Z,21.94
2023-07-28T12:01:22.994Z,21.74
2023-07-28T12:02:24.409Z,21.78
2023-07-28T12:03:23.079Z,21.74
2023-07-28T12:05:23.002Z,21.73
2023-07-28T12:06:29.121Z,21.91
2023-07-28T12:07:22.977Z,21.98
2023-07-28T12:08:22.873Z,22.00
2023-07-28T12:09:22.886Z,22.12
2023-07-28T12:12:25.888Z,21.91
2023-07-28T12:19:22.778Z,21.80
2023-07-28T12:20:22.818Z,21.60
2023-07-28T12:21:22.741Z,21.28
2023-07-28T12:22:22.719Z,21.32
2023-07-28T12:24:22.660Z,21.77
2023-07-28T12:25:22.642Z,21.55
2023-07-28T12:26:22.708Z,21.38
2023-07-28T12:27:22.617Z,21.56
2023-07-28T12:28:22.648Z,21.41
2023-07-28T12:29:30.860Z,21.51
2023-07-28T12:30:23.025Z,21.51
2023-07-28T12:31:22.654Z,21.41
2023-07-28T12:32:23.403Z,21.60
2023-07-28T12:33:22.892Z,21.62
2023-07-28T12:34:25.798Z,21.77
2023-07-28T12:35:22.583Z,21.53
2023-07-28T12:36:25.892Z,21.53
2023-07-28T12:37:57.787Z,21.67
2023-07-28T12:41:22.815Z,21.56
2023-07-28T12:43:04.210Z,21.75
2023-07-28T12:45:22.269Z,22.06
2023-07-28T12:45:27.787Z,21.77
2023-07-28T12:46:22.405Z,21.67
2023-07-28T12:47:22.419Z,21.82
2023-07-28T12:48:22.445Z,21.94
2023-07-28T12:49:22.337Z,21.96
2023-07-28T12:50:22.321Z,21.96
2023-07-28T12:52:25.086Z,21.75
2023-07-28T12:53:23.647Z,21.73
2023-07-28T12:54:22.284Z,21.75
2023-07-28T12:55:22.268Z,21.51
2023-07-28T12:57:22.249Z,21.25
2023-07-28T13:01:22.288Z,21.50
2023-07-28T13:02:22.199Z,21.51
2023-07-28T13:03:22.221Z,21.30
2023-07-28T13:04:22.152Z,21.18
2023-07-28T13:05:22.129Z,21.10
2023-07-28T13:06:22.152Z,21.01
2023-07-28T13:09:36.275Z,21.25
2023-07-28T13:09:42.876Z,21.38
2023-07-28T13:11:22.079Z,21.23
2023-07-28T13:13:22.030Z,21.50
2023-07-28T13:14:22.010Z,21.58
2023-07-28T13:15:22.013Z,21.28